Time;durP1;ratioP1;P1;durP2;ratioP2;P2;SDS_P1;SDS_P2;PMS_P1;PMS_P2;Temp;Humidity;BMP_temperature;BMP_pressure;BME280_temperature;BME280_humidity;BME280_pressure;Samples;Min_cycle;Max_cycle;Signal;HPM_P1;HPM_P2
2022/07/31 00:00:43;;;;;;;1.07;1.07;;;;;;;19.62;85.56;95726.50;4292456;33;20198;-60
2022/07/31 00:03:08;;;;;;;1.03;1.03;;;;;;;19.73;84.55;95724.91;4289362;33;20191;-60
2022/07/31 00:05:34;;;;;;;1.20;1.20;;;;;;;19.60;84.69;95715.28;4289410;33;20316;-60
2022/07/31 00:08:00;;;;;;;1.20;1.10;;;;;;;19.73;84.69;95724.91;4284984;33;20202;-60
2022/07/31 00:10:26;;;;;;;0.90;0.90;;;;;;;19.59;84.58;95721.00;4285027;33;20207;-61
2022/07/31 00:12:53;;;;;;;1.00;1.00;;;;;;;19.64;85.09;95721.56;4285246;33;20194;-60
2022/07/31 00:15:19;;;;;;;4.83;1.40;;;;;;;19.48;85.23;95723.38;4286641;33;20194;-60
2022/07/31 00:17:44;;;;;;;0.80;0.80;;;;;;;19.49;85.18;95709.56;4287177;33;20269;-60
2022/07/31 00:20:15;;;;;;;0.70;0.70;;;;;;;19.63;84.78;95722.69;4286249;33;20226;-60
2022/07/31 00:22:42;;;;;;;0.60;0.60;;;;;;;19.74;84.15;95714.91;4274640;33;20195;-60
2022/07/31 00:25:09;;;;;;;0.93;0.93;;;;;;;19.68;84.92;95717.06;4273761;33;20206;-60
2022/07/31 00:27:34;;;;;;;1.13;1.13;;;;;;;19.65;84.48;95712.34;4289174;33;20260;-61
2022/07/31 00:29:59;;;;;;;1.00;1.00;;;;;;;19.58;84.86;95724.81;4277006;33;20195;-61
2022/07/31 00:32:25;;;;;;;6.23;1.67;;;;;;;19.48;84.68;95718.78;4288449;33;20186;-61
2022/07/31 00:34:50;;;;;;;0.90;0.90;;;;;;;19.44;85.08;95709.81;4286354;33;20273;-60
2022/07/31 00:37:16;;;;;;;1.43;1.33;;;;;;;19.44;84.82;95714.41;4272369;33;20300;-61
2022/07/31 00:39:41;;;;;;;0.60;0.60;;;;;;;19.45;85.05;95703.28;4274959;33;20213;-61
2022/07/31 00:42:17;;;;;;;0.70;0.70;;;;;;;19.51;84.78;95714.66;4289871;33;20237;-61
2022/07/31 00:44:43;;;;;;;0.60;0.60;;;;;;;19.48;84.60;95713.38;4288821;33;20241;-60
2022/07/31 00:47:09;;;;;;;3.47;1.10;;;;;;;19.51;84.39;95711.97;4295407;33;20213;-60
2022/07/31 00:49:34;;;;;;;0.83;0.77;;;;;;;19.32;84.54;95714.44;4272713;33;20217;-61
2022/07/31 00:51:59;;;;;;;0.50;0.50;;;;;;;19.33;84.29;95718.69;4284763;33;20269;-60
2022/07/31 00:54:25;;;;;;;0.83;0.83;;;;;;;19.28;83.90;95716.22;4288311;33;20238;-60
2022/07/31 00:56:50;;;;;;;0.63;0.63;;;;;;;19.39;84.05;95709.25;4283710;33;20213;-60
2022/07/31 00:59:16;;;;;;;0.53;0.53;;;;;;;19.36;83.95;95721.47;4288117;33;20305;-60
2022/07/31 01:01:41;;;;;;;1.60;1.20;;;;;;;19.33;84.18;95722.16;4282815;33;20202;-60
2022/07/31 01:04:07;;;;;;;0.73;0.73;;;;;;;19.33;84.18;95716.75;4279221;33;20270;-60
2022/07/31 01:06:32;;;;;;;1.17;0.93;;;;;;;19.33;83.90;95721.38;4280286;33;20203;-60
2022/07/31 01:08:57;;;;;;;0.63;0.63;;;;;;;19.21;83.25;95719.47;4285845;33;20288;-61
2022/07/31 01:11:49;;;;;;;0.97;0.93;;;;;;;19.17;82.76;95724.75;4281820;33;20227;-61
2022/07/31 01:14:18;;;;;;;1.00;1.00;;;;;;;19.21;83.85;95720.25;4279300;33;20202;-61
2022/07/31 01:17:06;;;;;;;2.00;0.90;;;;;;;19.16;83.99;95720.50;4268596;33;20281;-60
2022/07/31 01:19:36;;;;;;;5.43;1.10;;;;;;;19.11;84.12;95723.44;4272152;33;20205;-61
2022/07/31 01:22:26;;;;;;;0.70;0.70;;;;;;;19.18;84.49;95726.31;4280608;33;20237;-60
2022/07/31 01:24:57;;;;;;;0.63;0.63;;;;;;;19.26;84.22;95724.63;4277105;33;20205;-60
2022/07/31 01:27:51;;;;;;;1.10;1.10;;;;;;;19.22;84.05;95716.44;4287563;33;20254;-60
2022/07/31 01:30:17;;;;;;;0.60;0.60;;;;;;;19.29;84.65;95720.50;4262408;33;20296;-60
2022/07/31 01:32:48;;;;;;;1.80;0.93;;;;;;;19.32;83.66;95719.81;4270099;33;20249;-60
2022/07/31 01:35:20;;;;;;;0.30;0.30;;;;;;;19.09;84.28;95720.28;4266391;33;20253;-60
2022/07/31 01:38:02;;;;;;;0.93;0.93;;;;;;;19.24;84.47;95713.44;4273191;33;20222;-60
2022/07/31 01:40:38;;;;;;;0.60;0.60;;;;;;;19.34;83.79;95709.47;4273916;33;20217;-60
2022/07/31 01:43:11;;;;;;;0.63;0.63;;;;;;;19.16;83.82;95712.41;4272252;33;20337;-60
2022/07/31 01:45:40;;;;;;;0.50;0.50;;;;;;;19.19;84.21;95716.34;4286211;33;20213;-60
2022/07/31 01:48:09;;;;;;;0.77;0.77;;;;;;;19.14;83.79;95714.66;4285728;33;20199;-60
2022/07/31 01:50:37;;;;;;;0.77;0.77;;;;;;;19.11;84.24;95709.97;4279492;33;20266;-60
2022/07/31 01:53:06;;;;;;;5.00;0.90;;;;;;;19.22;83.73;95705.69;4286365;33;20258;-60
2022/07/31 01:55:33;;;;;;;0.80;0.80;;;;;;;19.31;83.51;95699.41;4291211;33;20204;-60
2022/07/31 01:58:00;;;;;;;10.53;1.03;;;;;;;19.28;83.66;95702.78;4290634;33;20200;-60
2022/07/31 02:00:25;;;;;;;0.70;0.70;;;;;;;19.32;83.93;95693.69;4288125;33;20194;-60
2022/07/31 02:02:52;;;;;;;1.27;1.17;;;;;;;19.36;82.91;95699.94;4271324;33;20263;-60
2022/07/31 02:05:20;;;;;;;1.07;1.07;;;;;;;19.42;83.36;95698.59;4285743;33;20262;-60
2022/07/31 02:07:47;;;;;;;0.97;0.97;;;;;;;19.29;84.13;95690.91;4290159;33;20375;-60
2022/07/31 02:10:15;;;;;;;1.17;0.90;;;;;;;19.32;83.15;95691.00;4291976;33;20206;-60
2022/07/31 02:12:42;;;;;;;1.00;1.00;;;;;;;19.34;84.05;95696.03;4271821;33;20218;-60
2022/07/31 02:15:13;;;;;;;0.70;0.70;;;;;;;19.28;83.88;95698.19;4285966;33;20217;-60
2022/07/31 02:17:40;;;;;;;0.83;0.83;;;;;;;19.20;84.30;95697.19;4286525;33;20289;-60
2022/07/31 02:20:10;;;;;;;1.40;0.60;;;;;;;19.12;83.35;95697.31;4285145;33;20243;-60
2022/07/31 02:22:35;;;;;;;0.60;0.60;;;;;;;19.15;84.02;95700.09;4290969;33;20309;-60
2022/07/31 02:25:02;;;;;;;0.93;0.93;;;;;;;19.08;84.22;95701.81;4289920;33;20198;-60
2022/07/31 02:27:29;;;;;;;0.90;0.90;;;;;;;19.14;84.42;95692.34;4290273;33;20210;-60
2022/07/31 02:29:59;;;;;;;0.60;0.60;;;;;;;19.22;84.59;95702.22;4287080;33;20221;-60
2022/07/31 02:32:25;;;;;;;0.47;0.47;;;;;;;18.99;84.73;95696.53;4276405;33;20187;-60
2022/07/31 02:34:54;;;;;;;0.73;0.73;;;;;;;19.17;84.52;95691.69;4286429;33;20215;-60
2022/07/31 02:37:22;;;;;;;0.93;0.93;;;;;;;19.33;84.21;95695.22;4276221;33;20229;-60
2022/07/31 02:39:49;;;;;;;1.00;1.00;;;;;;;19.33;84.46;95694.47;4282507;33;20202;-60
2022/07/31 02:42:16;;;;;;;0.73;0.73;;;;;;;19.19;83.65;95694.81;4276702;33;20218;-60
2022/07/31 02:44:41;;;;;;;1.20;1.13;;;;;;;19.23;83.95;95693.81;4288854;33;20210;-60
2022/07/31 02:47:07;;;;;;;8.23;1.00;;;;;;;19.22;83.53;95691.47;4277085;33;20190;-60
2022/07/31 02:49:33;;;;;;;0.70;0.60;;;;;;;19.19;84.61;95684.06;4285958;33;20195;-60
2022/07/31 02:51:58;;;;;;;0.73;0.73;;;;;;;19.18;84.13;95691.34;4283407;33;20203;-60
2022/07/31 02:54:24;;;;;;;0.70;0.70;;;;;;;19.29;84.51;95691.69;4284854;33;20217;-60
2022/07/31 02:56:51;;;;;;;0.40;0.40;;;;;;;19.32;84.29;95692.91;4268117;33;20210;-60
2022/07/31 02:59:16;;;;;;;0.50;0.50;;;;;;;19.20;83.50;95693.69;4277361;33;20297;-60
2022/07/31 03:01:42;;;;;;;0.53;0.53;;;;;;;19.23;84.23;95695.72;4270387;33;20274;-60
2022/07/31 03:04:08;;;;;;;1.03;0.93;;;;;;;19.41;83.45;95696.25;4268980;33;20212;-60
2022/07/31 03:06:34;;;;;;;0.63;0.63;;;;;;;19.28;83.40;95698.19;4290133;33;20226;-60
2022/07/31 03:08:59;;;;;;;0.97;0.97;;;;;;;18.99;84.24;95696.53;4278051;33;20273;-60
2022/07/31 03:11:25;;;;;;;1.40;0.80;;;;;;;19.00;83.94;95694.63;4294776;33;20198;-60
2022/07/31 03:13:53;;;;;;;0.83;0.83;;;;;;;19.13;83.96;95696.94;4293931;33;20189;-60
2022/07/31 03:16:20;;;;;;;0.60;0.60;;;;;;;19.20;84.33;95691.00;4293421;33;20191;-60
2022/07/31 03:18:47;;;;;;;0.57;0.57;;;;;;;19.23;84.64;95684.97;4286424;33;20273;-60
2022/07/31 03:21:14;;;;;;;0.53;0.53;;;;;;;19.38;84.28;95688.84;4286842;33;20226;-60
2022/07/31 03:23:40;;;;;;;0.73;0.73;;;;;;;19.25;84.63;95692.69;4267617;33;20289;-60
2022/07/31 03:26:06;;;;;;;0.20;0.20;;;;;;;19.10;84.85;95694.97;4292750;33;20203;-60
2022/07/31 03:28:33;;;;;;;1.30;0.80;;;;;;;19.05;84.96;95694.41;4272589;33;20209;-60
2022/07/31 03:31:02;;;;;;;0.77;0.77;;;;;;;19.25;85.08;95688.09;4287232;33;20194;-60
2022/07/31 03:33:31;;;;;;;0.40;0.40;;;;;;;19.28;84.61;95692.03;4293550;33;20210;-60
2022/07/31 03:35:57;;;;;;;0.73;0.73;;;;;;;19.44;84.17;95692.88;4291965;33;20187;-60
2022/07/31 03:38:23;;;;;;;1.03;1.03;;;;;;;19.40;84.38;95691.97;4286573;33;20191;-60
2022/07/31 03:40:48;;;;;;;0.80;0.80;;;;;;;19.44;84.07;95695.56;4291431;33;20217;-60
2022/07/31 03:43:15;;;;;;;0.50;0.50;;;;;;;19.55;83.42;95685.91;4296773;33;20224;-60
2022/07/31 03:45:42;;;;;;;0.40;0.40;;;;;;;19.43;83.96;95699.38;4276513;33;20183;-60
2022/07/31 03:48:08;;;;;;;1.00;0.53;;;;;;;19.43;83.84;95694.00;4277963;33;20195;-60
2022/07/31 03:50:37;;;;;;;0.53;0.53;;;;;;;19.40;83.46;95694.66;4278129;33;20260;-60
2022/07/31 03:53:05;;;;;;;0.63;0.63;;;;;;;19.41;84.02;95697.03;4281316;33;20258;-60
2022/07/31 03:55:34;;;;;;;0.70;0.70;;;;;;;19.38;84.37;95686.16;4245265;33;20205;-61
2022/07/31 03:58:01;;;;;;;1.13;1.13;;;;;;;19.31;84.30;95686.75;4289288;33;20210;-60
2022/07/31 04:00:27;;;;;;;0.97;0.97;;;;;;;19.31;84.05;95684.06;4286803;33;20281;-61
2022/07/31 04:02:56;;;;;;;0.53;0.53;;;;;;;19.35;84.04;95686.81;4300479;33;20220;-60
2022/07/31 04:05:23;;;;;;;3.80;1.10;;;;;;;19.41;83.79;95698.94;4279988;33;20208;-60
2022/07/31 04:07:49;;;;;;;1.20;1.20;;;;;;;19.33;83.72;95689.84;4288852;33;20199;-60
2022/07/31 04:10:16;;;;;;;0.53;0.53;;;;;;;19.43;84.12;95691.31;4296178;33;20252;-60
2022/07/31 04:12:42;;;;;;;0.30;0.30;;;;;;;19.41;83.75;95688.16;4293101;33;20195;-60
2022/07/31 04:15:08;;;;;;;0.60;0.60;;;;;;;19.44;83.59;95698.25;4278282;33;20203;-60
2022/07/31 04:17:33;;;;;;;0.70;0.70;;;;;;;19.50;83.83;95705.00;4272102;33;20290;-60
2022/07/31 04:19:59;;;;;;;0.50;0.50;;;;;;;19.43;84.23;95694.00;4267510;33;20198;-61
2022/07/31 04:22:24;;;;;;;0.30;0.30;;;;;;;19.44;84.19;95690.19;4271865;33;20210;-60
2022/07/31 04:24:50;;;;;;;3.80;0.90;;;;;;;19.34;84.19;95698.72;4265667;33;20223;-60
2022/07/31 04:27:16;;;;;;;0.40;0.40;;;;;;;19.44;83.56;95699.03;4281037;33;20262;-60
2022/07/31 04:29:42;;;;;;;0.60;0.60;;;;;;;19.47;83.68;95701.06;4285143;33;20191;-60
2022/07/31 04:32:08;;;;;;;0.90;0.90;;;;;;;19.48;84.31;95701.84;4288525;33;20245;-60
2022/07/31 04:34:33;;;;;;;0.70;0.70;;;;;;;19.35;83.47;95694.91;4288015;33;20249;-60
2022/07/31 04:36:59;;;;;;;3.10;0.90;;;;;;;19.44;83.80;95699.03;4292822;33;20198;-61
2022/07/31 04:39:24;;;;;;;0.60;0.60;;;;;;;19.44;84.28;95703.63;4289218;33;20187;-60
2022/07/31 04:41:49;;;;;;;0.40;0.40;;;;;;;19.42;83.77;95714.75;4277722;33;20229;-60
2022/07/31 04:44:15;;;;;;;0.60;0.60;;;;;;;19.49;83.53;95714.16;4269750;33;20197;-61
2022/07/31 04:46:42;;;;;;;0.50;0.50;;;;;;;19.52;83.72;95714.31;4269711;33;20264;-60
2022/07/31 04:49:10;;;;;;;1.00;0.70;;;;;;;19.50;84.06;95715.78;4281505;33;20187;-60
2022/07/31 04:51:35;;;;;;;0.80;0.80;;;;;;;19.45;83.70;95724.03;4287655;33;20214;-60
2022/07/31 04:54:01;;;;;;;0.63;0.63;;;;;;;19.44;84.01;95720.56;4297915;33;20201;-60
2022/07/31 04:56:32;;;;;;;0.40;0.40;;;;;;;19.39;83.64;95715.41;4291837;33;20190;-61
2022/07/31 04:58:59;;;;;;;0.80;0.80;;;;;;;19.46;83.98;95714.84;4297362;33;20191;-61
2022/07/31 05:01:24;;;;;;;0.80;0.80;;;;;;;19.50;83.36;95711.16;4274434;33;20198;-60
2022/07/31 05:03:50;;;;;;;0.60;0.60;;;;;;;19.62;83.28;95710.34;4284729;33;20190;-60
2022/07/31 05:06:16;;;;;;;1.00;1.00;;;;;;;19.66;82.97;95715.84;4288853;33;20199;-60
2022/07/31 05:08:42;;;;;;;0.53;0.53;;;;;;;19.66;82.91;95711.22;4283264;33;20210;-60
2022/07/31 05:11:25;;;;;;;0.70;0.70;;;;;;;19.57;83.00;95710.56;4276292;33;20197;-60
2022/07/31 05:13:52;;;;;;;0.90;0.67;;;;;;;19.71;82.51;95707.53;4287421;33;20250;-60
2022/07/31 05:16:19;;;;;;;0.50;0.50;;;;;;;19.70;82.69;95711.34;4276241;33;20214;-60
2022/07/31 05:18:45;;;;;;;1.00;1.00;;;;;;;19.76;83.04;95699.97;4285693;33;20243;-60
2022/07/31 05:21:14;;;;;;;0.80;0.80;;;;;;;19.82;83.18;95703.22;4291504;33;20221;-60
2022/07/31 05:23:40;;;;;;;0.93;0.93;;;;;;;19.89;82.41;95709.59;4274800;33;20245;-60
2022/07/31 05:26:06;;;;;;;0.60;0.60;;;;;;;19.88;81.90;95709.91;4276288;33;20229;-60
2022/07/31 05:28:32;;;;;;;2.80;1.23;;;;;;;19.82;81.36;95701.31;4278069;33;20241;-60
2022/07/31 05:30:58;;;;;;;0.93;0.93;;;;;;;19.81;82.17;95710.50;4291170;33;20198;-61
2022/07/31 05:33:23;;;;;;;0.60;0.60;;;;;;;19.84;81.13;95706.34;4277853;33;20214;-60
2022/07/31 05:35:48;;;;;;;0.70;0.70;;;;;;;19.92;81.35;95707.34;4285813;33;20242;-60
2022/07/31 05:38:14;;;;;;;0.77;0.77;;;;;;;19.96;81.47;95702.81;4292432;33;20258;-60
2022/07/31 05:40:39;;;;;;;5.93;0.93;;;;;;;19.88;80.74;95702.63;4278118;33;20194;-60
2022/07/31 05:43:04;;;;;;;0.50;0.50;;;;;;;19.89;82.41;95704.19;4294069;33;20202;-61
2022/07/31 05:45:30;;;;;;;0.47;0.47;;;;;;;19.88;82.26;95704.53;4289651;33;20198;-61
2022/07/31 05:47:55;;;;;;;1.00;0.87;;;;;;;20.00;82.11;95711.78;4280746;33;20279;-60
2022/07/31 05:50:21;;;;;;;0.80;0.80;;;;;;;19.99;82.91;95719.06;4290142;33;20245;-60
2022/07/31 05:52:48;;;;;;;1.00;1.00;;;;;;;19.85;80.81;95722.16;4283821;33;20270;-60
2022/07/31 05:55:14;;;;;;;0.83;0.83;;;;;;;19.98;79.15;95725.56;4272830;33;20203;-60
2022/07/31 05:57:39;;;;;;;0.93;0.93;;;;;;;19.90;80.04;95730.00;4286070;33;20218;-60
2022/07/31 06:00:05;;;;;;;0.60;0.60;;;;;;;20.04;80.53;95720.72;4275352;33;20206;-60
2022/07/31 06:02:30;;;;;;;0.47;0.47;;;;;;;20.01;79.93;95730.28;4279247;33;20202;-61
2022/07/31 06:04:56;;;;;;;0.60;0.60;;;;;;;20.15;80.26;95730.69;4277722;33;20286;-60
2022/07/31 06:07:21;;;;;;;0.70;0.70;;;;;;;20.20;79.19;95733.13;4272787;33;20218;-60
2022/07/31 06:09:46;;;;;;;1.00;1.00;;;;;;;20.22;78.07;95730.88;4283820;33;20206;-60
2022/07/31 06:12:12;;;;;;;0.40;0.40;;;;;;;20.31;78.35;95728.03;4277964;33;20229;-60
2022/07/31 06:14:37;;;;;;;0.77;0.77;;;;;;;20.22;75.87;95724.69;4278325;33;20207;-60
2022/07/31 06:17:06;;;;;;;0.80;0.80;;;;;;;20.39;77.00;95727.09;4278794;33;20187;-61
2022/07/31 06:19:33;;;;;;;1.07;1.07;;;;;;;20.36;75.41;95730.47;4294784;33;20190;-60
2022/07/31 06:21:58;;;;;;;0.40;0.40;;;;;;;20.34;74.56;95740.81;4280412;33;20204;-60
2022/07/31 06:24:24;;;;;;;0.50;0.50;;;;;;;20.40;73.59;95733.25;4291580;33;20190;-60
2022/07/31 06:26:50;;;;;;;0.37;0.37;;;;;;;20.44;74.95;95726.06;4284895;33;20258;-60
2022/07/31 06:29:16;;;;;;;0.70;0.70;;;;;;;20.53;77.23;95735.56;4287086;33;20201;-60
2022/07/31 06:31:42;;;;;;;0.87;0.87;;;;;;;20.37;75.30;95733.97;4285178;33;20191;-60
2022/07/31 06:34:08;;;;;;;0.97;0.70;;;;;;;20.47;76.96;95730.75;4284673;33;20195;-60
2022/07/31 06:36:33;;;;;;;0.70;0.70;;;;;;;20.41;75.64;95727.53;4271296;33;20206;-60
2022/07/31 06:38:58;;;;;;;3.50;0.93;;;;;;;20.44;73.63;95732.22;4286608;33;20303;-60
2022/07/31 06:44:08;;;;;;;0.80;0.80;;;;;;;20.53;73.45;95730.16;4267307;33;20226;-60
2022/07/31 06:46:33;;;;;;;1.70;1.13;;;;;;;20.63;76.27;95731.56;4285739;33;20274;-60
2022/07/31 06:48:59;;;;;;;0.70;0.70;;;;;;;20.59;73.68;95731.47;4283545;33;20186;-60
2022/07/31 06:51:24;;;;;;;0.83;0.83;;;;;;;20.70;76.29;95733.66;4273792;33;20195;-60
2022/07/31 06:53:49;;;;;;;0.67;0.67;;;;;;;20.66;72.87;95727.38;4269748;33;20302;-60
2022/07/31 06:56:15;;;;;;;0.70;0.70;;;;;;;20.73;73.23;95732.97;4271604;33;20199;-60
2022/07/31 06:58:40;;;;;;;1.37;0.80;;;;;;;20.66;73.97;95730.09;4287688;33;20233;-60
2022/07/31 07:01:05;;;;;;;0.60;0.60;;;;;;;20.55;72.73;95735.22;4283983;33;20264;-60
2022/07/31 07:03:31;;;;;;;0.70;0.70;;;;;;;20.54;73.38;95739.81;4282470;33;20194;-61
2022/07/31 07:05:56;;;;;;;1.13;1.10;;;;;;;20.58;74.49;95731.81;4273628;33;20183;-62
2022/07/31 07:08:22;;;;;;;0.97;0.97;;;;;;;20.67;76.35;95731.66;4288190;33;20202;-60
2022/07/31 07:10:47;;;;;;;1.30;0.80;;;;;;;20.65;74.53;95745.47;4267025;33;20247;-60
2022/07/31 07:13:14;;;;;;;1.10;1.00;;;;;;;20.66;73.20;95746.25;4278463;33;20194;-60
2022/07/31 07:15:39;;;;;;;0.60;0.60;;;;;;;20.70;72.93;95745.22;4287000;33;20190;-60
2022/07/31 07:18:05;;;;;;;0.70;0.70;;;;;;;20.70;72.17;95755.22;4288775;33;20302;-60
2022/07/31 07:20:31;;;;;;;0.70;0.70;;;;;;;20.75;73.96;95744.97;4286771;33;20199;-60
2022/07/31 07:22:57;;;;;;;0.77;0.77;;;;;;;20.80;72.26;95746.59;4271883;33;20198;-61
2022/07/31 07:25:22;;;;;;;1.43;1.33;;;;;;;20.81;73.91;95745.47;4287436;33;20195;-60
2022/07/31 07:27:48;;;;;;;3.07;1.03;;;;;;;20.84;72.34;95744.78;4287203;33;20195;-60
2022/07/31 07:30:13;;;;;;;0.90;0.90;;;;;;;20.81;74.05;95750.88;4286778;33;20190;-60
2022/07/31 07:32:40;;;;;;;0.60;0.60;;;;;;;20.86;74.28;95742.53;4278761;33;20213;-60
2022/07/31 07:35:08;;;;;;;0.67;0.37;;;;;;;20.86;73.46;95739.81;4290435;33;20195;-61
2022/07/31 07:37:33;;;;;;;1.43;1.33;;;;;;;20.80;73.00;95743.91;4272702;33;20194;-60
2022/07/31 07:39:58;;;;;;;0.90;0.90;;;;;;;20.77;73.33;95741.94;4276834;33;20301;-61
2022/07/31 07:42:24;;;;;;;0.70;0.70;;;;;;;20.80;72.29;95736.59;4276558;33;20225;-61
2022/07/31 07:44:49;;;;;;;0.43;0.43;;;;;;;20.95;73.33;95739.66;4287831;33;20214;-61
2022/07/31 07:47:14;;;;;;;0.60;0.60;;;;;;;20.95;71.04;95734.25;4274729;33;20241;-61
2022/07/31 07:49:40;;;;;;;0.50;0.50;;;;;;;20.98;70.82;95737.06;4286928;33;20213;-54
2022/07/31 07:52:05;;;;;;;0.60;0.60;;;;;;;21.01;69.73;95740.94;4289032;33;20202;-57
2022/07/31 07:54:30;;;;;;;3.03;0.93;;;;;;;20.98;71.13;95728.97;4269678;33;20187;-56
2022/07/31 07:56:56;;;;;;;0.83;0.83;;;;;;;21.07;71.60;95732.25;4292187;33;20186;-55
2022/07/31 07:59:21;;;;;;;0.87;0.87;;;;;;;21.03;71.13;95734.06;4296507;33;20206;-57
2022/07/31 08:01:47;;;;;;;2.43;2.00;;;;;;;21.09;70.31;95731.91;4284361;33;20278;-58
2022/07/31 08:04:15;;;;;;;0.37;0.37;;;;;;;21.23;73.06;95724.16;4271616;33;20199;-56
2022/07/31 08:06:41;;;;;;;0.73;0.73;;;;;;;21.17;68.97;95730.94;4284991;33;20201;-54
2022/07/31 08:09:08;;;;;;;1.20;1.20;;;;;;;20.98;68.54;95731.66;4281048;33;20254;-55
2022/07/31 08:11:33;;;;;;;0.70;0.70;;;;;;;21.20;68.99;95722.94;4288301;33;20246;-54
2022/07/31 08:13:58;;;;;;;0.53;0.50;;;;;;;21.30;68.74;95721.62;4286507;33;20194;-51
2022/07/31 08:16:24;;;;;;;0.83;0.83;;;;;;;21.36;67.57;95724.84;4287602;33;20190;-53
2022/07/31 08:18:50;;;;;;;0.63;0.63;;;;;;;21.35;67.74;95712.47;4272539;33;20214;-56
2022/07/31 08:21:16;;;;;;;0.90;0.90;;;;;;;21.43;67.80;95725.75;4285650;33;20328;-57
2022/07/31 08:23:41;;;;;;;0.90;0.90;;;;;;;21.37;67.18;95719.09;4273745;33;20247;-54
2022/07/31 08:26:10;;;;;;;0.93;0.93;;;;;;;21.51;67.58;95721.31;4273704;33;20202;-55
2022/07/31 08:28:35;;;;;;;0.70;0.70;;;;;;;21.46;66.77;95716.94;4280143;33;20297;-56
2022/07/31 08:31:01;;;;;;;0.60;0.60;;;;;;;21.54;67.42;95713.28;4286276;33;20206;-53
2022/07/31 08:33:31;;;;;;;0.40;0.40;;;;;;;21.57;67.77;95714.50;4285594;33;20195;-54
2022/07/31 08:35:57;;;;;;;0.50;0.50;;;;;;;21.70;68.10;95715.13;4284473;33;20183;-55
2022/07/31 08:38:23;;;;;;;1.13;0.93;;;;;;;21.69;68.43;95724.38;4277438;33;20210;-54
2022/07/31 08:40:48;;;;;;;0.80;0.77;;;;;;;21.72;66.59;95713.66;4288065;33;20195;-52
2022/07/31 08:43:13;;;;;;;0.27;0.27;;;;;;;21.70;67.00;95717.84;4277896;33;20186;-55
2022/07/31 08:45:40;;;;;;;1.20;1.03;;;;;;;21.78;68.25;95716.84;4255135;33;20198;-54
2022/07/31 08:48:08;;;;;;;3.80;1.00;;;;;;;21.83;67.84;95722.72;4274081;33;20249;-55
2022/07/31 08:50:37;;;;;;;0.27;0.27;;;;;;;21.83;66.42;95717.34;4276132;33;20199;-53
2022/07/31 08:53:03;;;;;;;0.67;0.67;;;;;;;21.91;67.04;95719.06;4283517;33;20229;-57
2022/07/31 08:55:30;;;;;;;0.63;0.63;;;;;;;22.00;64.57;95713.47;4288453;33;20199;-56
2022/07/31 08:57:55;;;;;;;15.13;1.13;;;;;;;21.95;66.06;95709.09;4294439;33;20262;-56
2022/07/31 09:00:21;;;;;;;0.53;0.53;;;;;;;21.89;65.99;95717.84;4288696;33;20230;-54
2022/07/31 09:02:47;;;;;;;0.80;0.80;;;;;;;22.00;66.31;95707.25;4294764;33;20325;-55
2022/07/31 09:05:13;;;;;;;0.93;0.90;;;;;;;22.04;66.48;95708.91;4278769;33;20206;-54
2022/07/31 09:07:39;;;;;;;1.23;1.23;;;;;;;22.06;65.75;95703.13;4278649;33;20246;-56
2022/07/31 09:10:25;;;;;;;0.67;0.67;;;;;;;22.11;64.74;95709.03;4287076;33;20214;-55
2022/07/31 09:12:52;;;;;;;0.50;0.50;;;;;;;22.20;65.59;95706.12;4283466;33;20217;-56
2022/07/31 09:15:26;;;;;;;1.47;1.37;;;;;;;22.19;64.68;95708.03;4266210;33;20376;-55
2022/07/31 09:17:52;;;;;;;1.33;1.23;;;;;;;22.27;63.37;95708.94;4279426;33;20202;-56
2022/07/31 09:20:26;;;;;;;1.00;1.00;;;;;;;22.31;62.40;95707.09;4274142;33;20202;-57
2022/07/31 09:23:08;;;;;;;0.30;0.30;;;;;;;22.38;61.20;95696.41;4272853;33;20210;-56
2022/07/31 09:25:34;;;;;;;0.80;0.80;;;;;;;22.48;60.39;95697.72;4284050;33;20249;-56
2022/07/31 09:28:05;;;;;;;1.27;1.27;;;;;;;22.55;60.65;95695.94;4286186;33;20199;-57
2022/07/31 09:30:30;;;;;;;0.60;0.60;;;;;;;22.67;59.65;95702.28;4285384;33;20209;-58
2022/07/31 09:33:12;;;;;;;0.30;0.30;;;;;;;22.61;56.23;95694.50;4275476;33;20214;-54
2022/07/31 09:35:48;;;;;;;0.13;0.13;;;;;;;22.59;55.34;95690.59;4275978;33;20196;-57
2022/07/31 09:38:15;;;;;;;0.30;0.30;;;;;;;22.69;56.41;95689.19;4286729;33;20275;-58
2022/07/31 09:40:42;;;;;;;0.33;0.33;;;;;;;22.72;53.83;95693.88;4285484;33;20229;-56
2022/07/31 09:43:16;;;;;;;0.53;0.53;;;;;;;22.78;54.58;95687.06;4284991;33;20221;-57
2022/07/31 09:45:44;;;;;;;0.87;0.87;;;;;;;22.84;52.93;95685.63;4277465;33;20198;-58
2022/07/31 09:48:12;;;;;;;0.20;0.20;;;;;;;22.92;53.37;95689.97;4284203;33;20200;-58
2022/07/31 09:51:09;;;;;;;0.47;0.47;;;;;;;22.96;55.23;95685.41;4284173;33;20202;-58
2022/07/31 09:53:41;;;;;;;0.60;0.60;;;;;;;22.99;55.33;95687.41;4279794;33;20238;-56
2022/07/31 09:56:11;;;;;;;0.30;0.30;;;;;;;23.01;52.69;95687.81;4270627;33;20237;-58
2022/07/31 09:58:36;;;;;;;0.60;0.60;;;;;;;23.08;53.23;95690.59;4268711;33;20262;-57
2022/07/31 10:01:03;;;;;;;0.83;0.83;;;;;;;23.06;54.91;95687.50;4271548;33;20202;-56
2022/07/31 10:03:32;;;;;;;0.50;0.50;;;;;;;23.13;52.99;95681.41;4284593;33;20195;-59
2022/07/31 10:06:00;;;;;;;1.03;1.03;;;;;;;23.17;51.47;95676.81;4278960;33;20209;-59
2022/07/31 10:08:28;;;;;;;0.73;0.73;;;;;;;23.23;51.46;95676.16;4286357;33;20241;-59
2022/07/31 10:10:53;;;;;;;0.50;0.50;;;;;;;23.31;51.86;95682.44;4284575;33;20198;-59
2022/07/31 10:13:19;;;;;;;0.23;0.23;;;;;;;23.39;50.48;95683.31;4285459;33;20208;-59
2022/07/31 10:15:47;;;;;;;0.67;0.67;;;;;;;23.48;48.27;95679.22;4272920;33;20203;-59
2022/07/31 10:18:16;;;;;;;0.30;0.30;;;;;;;23.53;48.14;95675.41;4272343;33;20241;-59
2022/07/31 10:20:48;;;;;;;0.40;0.40;;;;;;;23.57;48.69;95668.88;4265736;33;20210;-58
2022/07/31 10:23:21;;;;;;;1.30;0.50;;;;;;;23.61;47.73;95672.44;4286213;33;20194;-59
2022/07/31 10:25:55;;;;;;;0.50;0.50;;;;;;;23.71;45.73;95660.16;4279262;33;20864;-58
2022/07/31 10:28:21;;;;;;;0.77;0.73;;;;;;;23.71;46.29;95668.28;4279529;33;20191;-59
2022/07/31 10:30:47;;;;;;;0.53;0.53;;;;;;;23.78;49.63;95668.38;4282198;33;21521;-58
2022/07/31 10:33:13;;;;;;;0.47;0.47;;;;;;;23.79;46.47;95669.94;4284299;33;20199;-58
2022/07/31 10:35:47;;;;;;;4.03;3.73;;;;;;;23.82;48.81;95663.00;4284645;33;20250;-58
2022/07/31 10:38:50;;;;;;;1.27;1.23;;;;;;;23.85;48.24;95662.25;4266158;33;20210;-57
2022/07/31 10:41:45;;;;;;;1.70;0.70;;;;;;;23.88;49.39;95658.81;4268529;33;20248;-58
2022/07/31 10:44:34;;;;;;;0.53;0.53;;;;;;;23.95;46.76;95665.06;4280296;33;20225;-59
2022/07/31 10:47:21;;;;;;;0.43;0.43;;;;;;;23.96;47.26;95657.72;4279923;33;20220;-58
2022/07/31 10:49:48;;;;;;;0.83;0.83;;;;;;;24.18;46.09;95664.94;4290049;33;20277;-58
2022/07/31 10:52:26;;;;;;;2.83;0.77;;;;;;;24.25;44.42;95661.56;4270840;33;20203;-55
2022/07/31 10:54:56;;;;;;;0.30;0.30;;;;;;;24.32;44.14;95656.94;4278076;33;20234;-58
2022/07/31 10:57:24;;;;;;;0.67;0.67;;;;;;;24.30;44.37;95655.78;4281028;33;20220;-54
2022/07/31 10:59:50;;;;;;;0.20;0.20;;;;;;;24.48;42.53;95662.16;4285082;33;20195;-55
2022/07/31 11:02:32;;;;;;;0.40;0.40;;;;;;;24.42;43.16;95652.00;4284469;33;20260;-57
2022/07/31 11:05:22;;;;;;;0.20;0.20;;;;;;;24.47;44.17;95655.16;4281204;33;20227;-59
2022/07/31 11:08:03;;;;;;;0.53;0.53;;;;;;;24.43;43.67;95643.50;4285388;33;20269;-56
2022/07/31 11:10:32;;;;;;;0.47;0.47;;;;;;;24.50;43.31;95645.50;4280947;33;20202;-58
2022/07/31 11:13:07;;;;;;;0.50;0.50;;;;;;;24.36;44.37;95646.16;4284664;33;20194;-57
2022/07/31 11:15:33;;;;;;;1.60;1.33;;;;;;;24.39;45.22;95633.78;4276357;33;20190;-57
2022/07/31 11:18:17;;;;;;;1.43;1.43;;;;;;;24.40;45.67;95638.03;4281635;33;20191;-55
2022/07/31 11:20:46;;;;;;;0.80;0.80;;;;;;;24.38;46.90;95635.69;4284290;33;20209;-57
2022/07/31 11:23:17;;;;;;;1.40;1.07;;;;;;;24.25;47.99;95631.72;4270328;33;20183;-57
2022/07/31 11:25:44;;;;;;;1.03;0.67;;;;;;;24.24;48.16;95625.50;4287042;33;20257;-57
2022/07/31 11:28:12;;;;;;;0.67;0.67;;;;;;;24.25;48.01;95631.72;4268552;33;20213;-56
2022/07/31 11:30:52;;;;;;;0.33;0.33;;;;;;;24.34;47.71;95624.03;4280822;33;20191;-57
2022/07/31 11:33:42;;;;;;;0.37;0.37;;;;;;;24.60;46.43;95637.44;4283760;33;20328;-53
2022/07/31 11:36:13;;;;;;;0.40;0.40;;;;;;;24.72;46.29;95627.47;4283011;33;20246;-56
2022/07/31 11:38:42;;;;;;;0.43;0.43;;;;;;;24.76;45.52;95633.69;4284070;33;20191;-57
2022/07/31 11:41:08;;;;;;;0.30;0.30;;;;;;;24.70;47.47;95635.19;4292075;33;20209;-57